Time;durP1;ratioP1;P1;durP2;ratioP2;P2;SDS_P1;SDS_P2;PMS_P1;PMS_P2;Temp;Humidity;BMP_temperature;BMP_pressure;BME280_temperature;BME280_humidity;BME280_pressure;Samples;Min_cycle;Max_cycle;Signal;HPM_P1;HPM_P2
2022/09/19 00:00:04;;;;;;;;;;;;;;;;;;2129019;27;19923;-45
2022/09/19 00:01:05;;;;;;;;;;;;;;;;;;2123314;28;19946;-46
2022/09/19 00:02:06;;;;;;;;;;;;;;;;;;2129700;27;20010;-46
2022/09/19 00:03:06;;;;;;;;;;;;;;;;;;2131879;27;19927;-45
2022/09/19 00:04:07;;;;;;;;;;;;;;;;;;2131906;27;19923;-46
2022/09/19 00:05:08;;;;;;;;;;;;;;;;;;2131937;27;19978;-46
2022/09/19 00:06:10;;;;;;;;;;;;;;;;;;2131987;27;19930;-46
2022/09/19 00:07:10;;;;;;;;;;;;;;;;;;2131816;27;19927;-45
2022/09/19 00:08:11;;;;;;;;;;;;;;;;;;2131488;27;20322;-45
2022/09/19 00:09:12;;;;;;;;;;;;;;;;;;2132038;27;19971;-47
2022/09/19 00:10:13;;;;;;;;;;;;;;;;;;2131877;27;20315;-46
2022/09/19 00:11:14;;;;;;;;;;;;;;;;;;2130029;27;20022;-46
2022/09/19 00:12:15;;;;;;;;;;;;;;;;;;2123300;27;19982;-46
2022/09/19 00:13:15;;;;;;;;;;;;;;;;;;2123433;28;20285;-45
2022/09/19 00:14:16;;;;;;;;;;;;;;;;;;2123367;28;20392;-46
2022/09/19 00:15:17;;;;;;;;;;;;;;;;;;2123426;28;20287;-47
2022/09/19 00:16:18;;;;;;;;;;;;;;;;;;2123283;27;19974;-45
2022/09/19 00:17:19;;;;;;;;;;;;;;;;;;2123284;28;20404;-46
2022/09/19 00:18:20;;;;;;;;;;;;;;;;;;2123308;28;19923;-47
2022/09/19 00:19:21;;;;;;;;;;;;;;;;;;2123717;28;19923;-42
2022/09/19 00:20:22;;;;;;;;;;;;;;;;;;2123309;28;19930;-42
2022/09/19 00:21:22;;;;;;;;;;;;;;;;;;2123066;27;20296;-42
2022/09/19 00:22:23;;;;;;;;;;;;;;;;;;2123440;28;20365;-42
2022/09/19 00:24:46;;;;;;;;;;;;;;;;;;2123359;28;19930;-42
2022/09/19 00:25:47;;;;;;;;;;;;;;;;;;2123221;28;19984;-42
2022/09/19 00:26:48;;;;;;;;;;;;;;;;;;2123166;27;19923;-42
2022/09/19 00:27:48;;;;;;;;;;;;;;;;;;2123271;28;19923;-42
2022/09/19 00:28:49;;;;;;;;;;;;;;;;;;2123392;28;19959;-42
2022/09/19 00:29:50;;;;;;;;;;;;;;;;;;2123255;28;19923;-42
2022/09/19 00:30:51;;;;;;;;;;;;;;;;;;2123782;28;20391;-42
2022/09/19 00:31:52;;;;;;;;;;;;;;;;;;2123222;27;20321;-42
2022/09/19 00:32:53;;;;;;;;;;;;;;;;;;2123299;28;20019;-42
2022/09/19 00:33:54;;;;;;;;;;;;;;;;;;2123189;28;19923;-42
2022/09/19 00:34:55;;;;;;;;;;;;;;;;;;2123387;28;19973;-42
2022/09/19 00:35:55;;;;;;;;;;;;;;;;;;2123218;28;19924;-42
2022/09/19 00:36:57;;;;;;;;;;;;;;;;;;2123158;27;19974;-43
2022/09/19 00:37:58;;;;;;;;;;;;;;;;;;2123370;28;19976;-45
2022/09/19 00:38:59;;;;;;;;;;;;;;;;;;2123229;28;19923;-45
2022/09/19 00:40:00;;;;;;;;;;;;;;;;;;2123295;28;19923;-45
2022/09/19 00:41:01;;;;;;;;;;;;;;;;;;2123103;28;20326;-46
2022/09/19 00:42:01;;;;;;;;;;;;;;;;;;2122940;27;19924;-46
2022/09/19 00:43:03;;;;;;;;;;;;;;;;;;2123295;28;19923;-46
2022/09/19 00:44:03;;;;;;;;;;;;;;;;;;2123131;28;19924;-46
2022/09/19 00:45:04;;;;;;;;;;;;;;;;;;2123137;28;20406;-45
2022/09/19 00:46:05;;;;;;;;;;;;;;;;;;2123116;28;19974;-45
2022/09/19 00:47:06;;;;;;;;;;;;;;;;;;2123092;27;19977;-46
2022/09/19 00:48:07;;;;;;;;;;;;;;;;;;2123084;28;20292;-46
2022/09/19 00:49:08;;;;;;;;;;;;;;;;;;2123448;28;19966;-46
2022/09/19 00:50:08;;;;;;;;;;;;;;;;;;2123150;28;20330;-45
2022/09/19 00:51:09;;;;;;;;;;;;;;;;;;2123062;28;20373;-46
2022/09/19 00:52:10;;;;;;;;;;;;;;;;;;2122979;27;20019;-45
2022/09/19 00:53:11;;;;;;;;;;;;;;;;;;2123207;28;20373;-45
2022/09/19 00:54:12;;;;;;;;;;;;;;;;;;2123371;28;20358;-42
2022/09/19 00:55:13;;;;;;;;;;;;;;;;;;2123078;28;20368;-42
2022/09/19 00:56:15;;;;;;;;;;;;;;;;;;2123212;27;19964;-42
2022/09/19 00:57:16;;;;;;;;;;;;;;;;;;2123097;28;19923;-43
2022/09/19 00:58:17;;;;;;;;;;;;;;;;;;2128867;27;19934;-42
2022/09/19 00:59:18;;;;;;;;;;;;;;;;;;2131628;27;19966;-42
2022/09/19 01:00:18;;;;;;;;;;;;;;;;;;2131730;27;19923;-42
2022/09/19 01:01:19;;;;;;;;;;;;;;;;;;2131693;27;19923;-42
2022/09/19 01:02:22;;;;;;;;;;;;;;;;;;2131699;27;19946;-42
2022/09/19 01:03:24;;;;;;;;;;;;;;;;;;2131659;27;19924;-42
2022/09/19 01:04:27;;;;;;;;;;;;;;;;;;2131737;27;19990;-42
2022/09/19 01:05:28;;;;;;;;;;;;;;;;;;2131606;27;19923;-42
2022/09/19 01:06:32;;;;;;;;;;;;;;;;;;2131681;27;19923;-42
2022/09/19 01:07:33;;;;;;;;;;;;;;;;;;2131579;27;20304;-42
2022/09/19 01:08:33;;;;;;;;;;;;;;;;;;2131624;27;19954;-43
2022/09/19 01:09:36;;;;;;;;;;;;;;;;;;2132080;27;20403;-42
2022/09/19 01:10:37;;;;;;;;;;;;;;;;;;2131545;27;20376;-42
2022/09/19 01:11:38;;;;;;;;;;;;;;;;;;2126152;27;19931;-43
2022/09/19 01:12:47;;;;;;;;;;;;;;;;;;2122923;28;19962;-42
2022/09/19 01:13:48;;;;;;;;;;;;;;;;;;2123136;28;19927;-42
2022/09/19 01:14:51;;;;;;;;;;;;;;;;;;2122954;28;19924;-42
2022/09/19 01:15:54;;;;;;;;;;;;;;;;;;2123085;28;19923;-42
2022/09/19 01:16:56;;;;;;;;;;;;;;;;;;2123335;27;19942;-45
2022/09/19 01:17:58;;;;;;;;;;;;;;;;;;2122929;28;19927;-45
2022/09/19 01:19:05;;;;;;;;;;;;;;;;;;2122984;28;19924;-46
2022/09/19 01:20:07;;;;;;;;;;;;;;;;;;2123332;27;19923;-46
2022/09/19 01:22:23;;;;;;;;;;;;;;;;;;2115204;28;19923;-50
2022/09/19 01:23:25;;;;;;;;;;;;;;;;;;2124581;28;19924;-46
2022/09/19 01:24:26;;;;;;;;;;;;;;;;;;2124387;28;20257;-45
2022/09/19 01:25:28;;;;;;;;;;;;;;;;;;2124411;28;19928;-46
2022/09/19 01:26:31;;;;;;;;;;;;;;;;;;2124357;27;19923;-45
2022/09/19 01:27:31;;;;;;;;;;;;;;;;;;2124526;28;19923;-47
2022/09/19 01:28:32;;;;;;;;;;;;;;;;;;2124412;28;20046;-47
2022/09/19 01:29:33;;;;;;;;;;;;;;;;;;2124418;28;20082;-46
2022/09/19 01:30:34;;;;;;;;;;;;;;;;;;2124328;28;19924;-46
2022/09/19 01:31:36;;;;;;;;;;;;;;;;;;2124479;27;20364;-46
2022/09/19 01:32:37;;;;;;;;;;;;;;;;;;2124521;28;20018;-43
2022/09/19 01:33:38;;;;;;;;;;;;;;;;;;2124480;28;19963;-42
2022/09/19 01:34:38;;;;;;;;;;;;;;;;;;2124353;28;19927;-42
2022/09/19 01:35:39;;;;;;;;;;;;;;;;;;2124259;28;20406;-42
2022/09/19 01:36:41;;;;;;;;;;;;;;;;;;2124366;27;20441;-43
2022/09/19 01:37:41;;;;;;;;;;;;;;;;;;2124330;28;19923;-42
2022/09/19 01:38:43;;;;;;;;;;;;;;;;;;2124639;28;20336;-45
2022/09/19 01:39:44;;;;;;;;;;;;;;;;;;2124248;28;20334;-45
2022/09/19 01:40:44;;;;;;;;;;;;;;;;;;2124493;28;19975;-45
2022/09/19 01:41:45;;;;;;;;;;;;;;;;;;2124116;27;19923;-45
2022/09/19 01:42:46;;;;;;;;;;;;;;;;;;2124464;28;19923;-45
2022/09/19 01:43:47;;;;;;;;;;;;;;;;;;2124397;28;19928;-45
2022/09/19 01:44:48;;;;;;;;;;;;;;;;;;2124245;28;20360;-45
2022/09/19 01:45:49;;;;;;;;;;;;;;;;;;2124241;28;19924;-46
2022/09/19 01:46:50;;;;;;;;;;;;;;;;;;2124408;27;19974;-45
2022/09/19 01:47:50;;;;;;;;;;;;;;;;;;2124563;28;19923;-46
2022/09/19 01:48:51;;;;;;;;;;;;;;;;;;2124270;28;20010;-51
2022/09/19 01:49:52;;;;;;;;;;;;;;;;;;2124397;28;20404;-50
2022/09/19 01:50:53;;;;;;;;;;;;;;;;;;2124336;28;20323;-47
2022/09/19 01:51:54;;;;;;;;;;;;;;;;;;2124169;27;20360;-46
2022/09/19 01:54:15;;;;;;;;;;;;;;;;;;2127514;27;19927;-48
2022/09/19 01:55:15;;;;;;;;;;;;;;;;;;2132807;27;19929;-49
2022/09/19 01:56:16;;;;;;;;;;;;;;;;;;2132757;27;19970;-48
2022/09/19 01:57:17;;;;;;;;;;;;;;;;;;2132912;27;19927;-46
2022/09/19 01:58:18;;;;;;;;;;;;;;;;;;2132714;27;20261;-47
2022/09/19 01:59:20;;;;;;;;;;;;;;;;;;2132785;27;19923;-48
2022/09/19 02:00:22;;;;;;;;;;;;;;;;;;2132925;27;20041;-48
2022/09/19 02:01:22;;;;;;;;;;;;;;;;;;2132736;27;19930;-49
2022/09/19 02:02:23;;;;;;;;;;;;;;;;;;2132828;27;19959;-47
2022/09/19 02:03:25;;;;;;;;;;;;;;;;;;2132745;27;20367;-49
2022/09/19 02:04:26;;;;;;;;;;;;;;;;;;2132808;27;19931;-47
2022/09/19 02:05:27;;;;;;;;;;;;;;;;;;2132860;27;19956;-47
2022/09/19 02:06:28;;;;;;;;;;;;;;;;;;2132729;27;19923;-46
2022/09/19 02:07:29;;;;;;;;;;;;;;;;;;2132700;27;19945;-49
2022/09/19 02:08:30;;;;;;;;;;;;;;;;;;2132687;27;19923;-49
2022/09/19 02:09:30;;;;;;;;;;;;;;;;;;2133001;27;19923;-48
2022/09/19 02:10:31;;;;;;;;;;;;;;;;;;2132833;27;19929;-50
2022/09/19 02:11:32;;;;;;;;;;;;;;;;;;2128072;27;20430;-47
2022/09/19 02:12:33;;;;;;;;;;;;;;;;;;2124244;28;19930;-48
2022/09/19 02:13:34;;;;;;;;;;;;;;;;;;2124078;28;20014;-47
2022/09/19 02:14:34;;;;;;;;;;;;;;;;;;2124191;28;20010;-47
2022/09/19 02:15:35;;;;;;;;;;;;;;;;;;2124381;28;20376;-47
2022/09/19 02:16:36;;;;;;;;;;;;;;;;;;2123982;27;20327;-47
2022/09/19 02:17:44;;;;;;;;;;;;;;;;;;2124096;28;19927;-47
2022/09/19 02:18:45;;;;;;;;;;;;;;;;;;2124134;28;19935;-47
2022/09/19 02:19:46;;;;;;;;;;;;;;;;;;2124054;28;19924;-46
2022/09/19 02:20:47;;;;;;;;;;;;;;;;;;2124049;28;20022;-46
2022/09/19 02:21:50;;;;;;;;;;;;;;;;;;2123853;27;20307;-47
2022/09/19 02:22:51;;;;;;;;;;;;;;;;;;2123978;28;19923;-46
2022/09/19 02:23:52;;;;;;;;;;;;;;;;;;2124201;28;19924;-48
2022/09/19 02:24:54;;;;;;;;;;;;;;;;;;2123992;28;19927;-46
2022/09/19 02:25:55;;;;;;;;;;;;;;;;;;2124145;28;19924;-46
2022/09/19 02:26:56;;;;;;;;;;;;;;;;;;2123913;27;19923;-47
2022/09/19 02:27:57;;;;;;;;;;;;;;;;;;2124185;28;19946;-43
2022/09/19 02:28:58;;;;;;;;;;;;;;;;;;2124022;28;19948;-43
2022/09/19 02:30:00;;;;;;;;;;;;;;;;;;2123967;28;19936;-43
2022/09/19 02:31:01;;;;;;;;;;;;;;;;;;2123757;27;19938;-43
2022/09/19 02:32:02;;;;;;;;;;;;;;;;;;2123875;27;19923;-43
2022/09/19 02:33:06;;;;;;;;;;;;;;;;;;2124015;28;19923;-44
2022/09/19 02:34:07;;;;;;;;;;;;;;;;;;2123945;28;20300;-43
2022/09/19 02:35:08;;;;;;;;;;;;;;;;;;2124060;28;20018;-44
2022/09/19 02:36:14;;;;;;;;;;;;;;;;;;2123831;28;19930;-44
2022/09/19 02:37:15;;;;;;;;;;;;;;;;;;2124022;27;20368;-44
2022/09/19 02:38:16;;;;;;;;;;;;;;;;;;2123985;28;20379;-44
2022/09/19 02:39:17;;;;;;;;;;;;;;;;;;2124013;28;19927;-44
2022/09/19 02:40:20;;;;;;;;;;;;;;;;;;2123880;28;19924;-45
2022/09/19 02:41:21;;;;;;;;;;;;;;;;;;2123978;27;19958;-45
2022/09/19 02:42:22;;;;;;;;;;;;;;;;;;2123782;28;19923;-44
2022/09/19 02:43:23;;;;;;;;;;;;;;;;;;2124058;28;19973;-45
2022/09/19 02:44:24;;;;;;;;;;;;;;;;;;2123937;28;20308;-44
2022/09/19 02:45:27;;;;;;;;;;;;;;;;;;2123846;28;19923;-44
2022/09/19 02:46:30;;;;;;;;;;;;;;;;;;2123975;27;19984;-44
2022/09/19 02:47:32;;;;;;;;;;;;;;;;;;2124130;28;19924;-44
2022/09/19 02:48:33;;;;;;;;;;;;;;;;;;2124081;28;19931;-44
2022/09/19 02:49:38;;;;;;;;;;;;;;;;;;2124204;27;19930;-44
2022/09/19 02:50:39;;;;;;;;;;;;;;;;;;2128630;27;19923;-45
2022/09/19 02:51:40;;;;;;;;;;;;;;;;;;2132418;27;20325;-43
2022/09/19 02:52:41;;;;;;;;;;;;;;;;;;2132531;27;20333;-43
2022/09/19 02:53:42;;;;;;;;;;;;;;;;;;2132404;27;19923;-43
2022/09/19 02:54:43;;;;;;;;;;;;;;;;;;2132307;27;20038;-45
2022/09/19 02:55:46;;;;;;;;;;;;;;;;;;2132396;27;19923;-44
2022/09/19 02:56:47;;;;;;;;;;;;;;;;;;2132449;27;20303;-46
2022/09/19 02:57:48;;;;;;;;;;;;;;;;;;2132344;27;19976;-46
2022/09/19 02:58:49;;;;;;;;;;;;;;;;;;2132350;27;20006;-48
2022/09/19 02:59:50;;;;;;;;;;;;;;;;;;2132388;27;20291;-46
2022/09/19 03:00:51;;;;;;;;;;;;;;;;;;2132354;27;19922;-46
2022/09/19 03:01:52;;;;;;;;;;;;;;;;;;2132335;27;19923;-48
2022/09/19 03:02:56;;;;;;;;;;;;;;;;;;2132323;27;20283;-46
2022/09/19 03:04:12;;;;;;;;;;;;;;;;;;2132417;27;19927;-47
2022/09/19 03:05:13;;;;;;;;;;;;;;;;;;2132384;27;19938;-46
2022/09/19 03:06:13;;;;;;;;;;;;;;;;;;2132338;27;20009;-46
2022/09/19 03:07:14;;;;;;;;;;;;;;;;;;2132325;27;19970;-46
2022/09/19 03:08:15;;;;;;;;;;;;;;;;;;2132471;27;19930;-46
2022/09/19 03:09:16;;;;;;;;;;;;;;;;;;2132613;27;19924;-46
2022/09/19 03:10:17;;;;;;;;;;;;;;;;;;2132238;27;19927;-46
2022/09/19 03:11:18;;;;;;;;;;;;;;;;;;2129645;27;19923;-46
2022/09/19 03:12:19;;;;;;;;;;;;;;;;;;2123617;28;19924;-47
2022/09/19 03:13:22;;;;;;;;;;;;;;;;;;2123710;28;19931;-46
2022/09/19 03:14:22;;;;;;;;;;;;;;;;;;2123670;28;20384;-46
2022/09/19 03:15:24;;;;;;;;;;;;;;;;;;2123821;28;19923;-46
2022/09/19 03:16:25;;;;;;;;;;;;;;;;;;2123578;27;19969;-46
2022/09/19 03:17:27;;;;;;;;;;;;;;;;;;2123659;28;19938;-46
2022/09/19 03:18:27;;;;;;;;;;;;;;;;;;2123752;28;19927;-48
2022/09/19 03:19:30;;;;;;;;;;;;;;;;;;2124025;28;19923;-44
2022/09/19 03:20:31;;;;;;;;;;;;;;;;;;2123856;28;19931;-43
2022/09/19 03:21:32;;;;;;;;;;;;;;;;;;2123573;27;19966;-43
2022/09/19 03:22:34;;;;;;;;;;;;;;;;;;2123721;28;19924;-43
2022/09/19 03:23:35;;;;;;;;;;;;;;;;;;2123672;28;19984;-43
2022/09/19 03:24:37;;;;;;;;;;;;;;;;;;2123950;28;19923;-43
2022/09/19 03:25:38;;;;;;;;;;;;;;;;;;2123565;28;19988;-43
2022/09/19 03:26:39;;;;;;;;;;;;;;;;;;2123560;27;20334;-43
2022/09/19 03:27:40;;;;;;;;;;;;;;;;;;2123823;28;20021;-46
2022/09/19 03:28:40;;;;;;;;;;;;;;;;;;2123533;28;19923;-46
2022/09/19 03:29:41;;;;;;;;;;;;;;;;;;2123768;28;20406;-43
2022/09/19 03:30:42;;;;;;;;;;;;;;;;;;2123775;28;20006;-42
2022/09/19 03:31:43;;;;;;;;;;;;;;;;;;2123631;27;20060;-43
2022/09/19 03:32:44;;;;;;;;;;;;;;;;;;2123801;28;19923;-43
2022/09/19 03:33:46;;;;;;;;;;;;;;;;;;2123568;28;19989;-43
2022/09/19 03:34:47;;;;;;;;;;;;;;;;;;2123516;28;19928;-43
2022/09/19 03:35:48;;;;;;;;;;;;;;;;;;2123861;28;19929;-46
2022/09/19 03:36:49;;;;;;;;;;;;;;;;;;2123633;27;19931;-46
2022/09/19 03:37:50;;;;;;;;;;;;;;;;;;2123648;28;19924;-47
2022/09/19 03:38:51;;;;;;;;;;;;;;;;;;2123754;28;19930;-46
2022/09/19 03:39:52;;;;;;;;;;;;;;;;;;2123908;28;20363;-46
2022/09/19 03:40:53;;;;;;;;;;;;;;;;;;2123570;28;19935;-47
2022/09/19 03:41:55;;;;;;;;;;;;;;;;;;2123769;27;19930;-45
2022/09/19 03:42:56;;;;;;;;;;;;;;;;;;2122736;27;20313;-47
2022/09/19 03:43:59;;;;;;;;;;;;;;;;;;2123440;28;20350;-45
2022/09/19 03:45:00;;;;;;;;;;;;;;;;;;2123753;27;19924;-46
2022/09/19 03:46:01;;;;;;;;;;;;;;;;;;2123467;28;20376;-45
2022/09/19 03:47:02;;;;;;;;;;;;;;;;;;2129224;27;20021;-45
2022/09/19 03:48:03;;;;;;;;;;;;;;;;;;2132088;27;20355;-46
2022/09/19 03:49:04;;;;;;;;;;;;;;;;;;2131987;27;19977;-46
2022/09/19 03:50:06;;;;;;;;;;;;;;;;;;2132114;27;19923;-47
2022/09/19 03:51:07;;;;;;;;;;;;;;;;;;2132176;27;19923;-47
2022/09/19 03:52:07;;;;;;;;;;;;;;;;;;2132079;27;20372;-46
2022/09/19 03:53:09;;;;;;;;;;;;;;;;;;2132313;27;20305;-42
2022/09/19 03:54:10;;;;;;;;;;;;;;;;;;2132099;27;19923;-43
2022/09/19 03:55:11;;;;;;;;;;;;;;;;;;2131962;27;20417;-42
2022/09/19 03:56:16;;;;;;;;;;;;;;;;;;2132229;27;20325;-46
2022/09/19 03:57:17;;;;;;;;;;;;;;;;;;2132202;27;19991;-43
2022/09/19 03:58:18;;;;;;;;;;;;;;;;;;2132185;27;19927;-46
2022/09/19 03:59:19;;;;;;;;;;;;;;;;;;2132353;27;19930;-43
2022/09/19 04:00:19;;;;;;;;;;;;;;;;;;2132622;27;20354;-43
2022/09/19 04:01:20;;;;;;;;;;;;;;;;;;2131863;27;19930;-43
2022/09/19 04:02:22;;;;;;;;;;;;;;;;;;2132023;27;20023;-43
2022/09/19 04:03:23;;;;;;;;;;;;;;;;;;2132130;27;20337;-42
2022/09/19 04:04:25;;;;;;;;;;;;;;;;;;2132086;27;19923;-44
2022/09/19 04:05:26;;;;;;;;;;;;;;;;;;2132206;27;19931;-47
2022/09/19 04:06:27;;;;;;;;;;;;;;;;;;2132007;27;19934;-45
2022/09/19 04:07:28;;;;;;;;;;;;;;;;;;2132328;27;19946;-46
2022/09/19 04:08:28;;;;;;;;;;;;;;;;;;2131937;27;20264;-45
2022/09/19 04:09:29;;;;;;;;;;;;;;;;;;2132425;27;19931;-47
2022/09/19 04:10:30;;;;;;;;;;;;;;;;;;2132403;27;20418;-47
2022/09/19 04:11:31;;;;;;;;;;;;;;;;;;2127523;27;19924;-45
2022/09/19 04:12:33;;;;;;;;;;;;;;;;;;2123740;28;20295;-46
2022/09/19 04:13:35;;;;;;;;;;;;;;;;;;2123303;28;19923;-48
2022/09/19 04:14:36;;;;;;;;;;;;;;;;;;2123641;28;19976;-47
2022/09/19 04:15:37;;;;;;;;;;;;;;;;;;2123278;28;19927;-45
2022/09/19 04:16:38;;;;;;;;;;;;;;;;;;2123395;27;19931;-46
2022/09/19 04:17:39;;;;;;;;;;;;;;;;;;2123349;28;19958;-45
2022/09/19 04:18:47;;;;;;;;;;;;;;;;;;2123442;28;19924;-42
2022/09/19 04:19:52;;;;;;;;;;;;;;;;;;2123678;28;19950;-42
2022/09/19 04:20:53;;;;;;;;;;;;;;;;;;2123429;28;20368;-43
2022/09/19 04:21:56;;;;;;;;;;;;;;;;;;2123229;27;19923;-43
2022/09/19 04:23:00;;;;;;;;;;;;;;;;;;2123363;28;20402;-43
2022/09/19 04:24:01;;;;;;;;;;;;;;;;;;2123411;28;19943;-43
2022/09/19 04:25:02;;;;;;;;;;;;;;;;;;2123316;28;20019;-43
2022/09/19 04:26:04;;;;;;;;;;;;;;;;;;2123424;28;20010;-43
2022/09/19 04:27:08;;;;;;;;;;;;;;;;;;2123401;27;19923;-43
2022/09/19 04:28:11;;;;;;;;;;;;;;;;;;2123399;28;19928;-43
2022/09/19 04:29:12;;;;;;;;;;;;;;;;;;2123594;28;19975;-47
2022/09/19 04:30:15;;;;;;;;;;;;;;;;;;2123707;28;19923;-45
2022/09/19 04:31:16;;;;;;;;;;;;;;;;;;2123226;28;19923;-47
2022/09/19 04:32:17;;;;;;;;;;;;;;;;;;2123543;28;19951;-46
2022/09/19 04:33:18;;;;;;;;;;;;;;;;;;2123528;28;19958;-43
2022/09/19 04:34:19;;;;;;;;;;;;;;;;;;2123292;28;19946;-43
2022/09/19 04:35:20;;;;;;;;;;;;;;;;;;2123446;28;19931;-46
2022/09/19 04:36:21;;;;;;;;;;;;;;;;;;2123287;27;19923;-48
2022/09/19 04:37:22;;;;;;;;;;;;;;;;;;2123288;28;19923;-46
2022/09/19 04:38:23;;;;;;;;;;;;;;;;;;2123409;28;19968;-45
2022/09/19 04:39:24;;;;;;;;;;;;;;;;;;2123374;28;19924;-45
2022/09/19 04:40:25;;;;;;;;;;;;;;;;;;2123311;28;19946;-45
2022/09/19 04:41:27;;;;;;;;;;;;;;;;;;2123046;27;19923;-47
2022/09/19 04:42:27;;;;;;;;;;;;;;;;;;2123036;28;20387;-47
2022/09/19 04:43:28;;;;;;;;;;;;;;;;;;2130798;27;20030;-46
2022/09/19 04:44:29;;;;;;;;;;;;;;;;;;2131778;27;20283;-46
2022/09/19 04:45:30;;;;;;;;;;;;;;;;;;2132238;27;20013;-43
2022/09/19 04:46:32;;;;;;;;;;;;;;;;;;2131571;27;20367;-43
2022/09/19 04:47:36;;;;;;;;;;;;;;;;;;2131867;27;19923;-42
2022/09/19 04:48:37;;;;;;;;;;;;;;;;;;2131731;27;19931;-43
2022/09/19 04:49:39;;;;;;;;;;;;;;;;;;2131664;27;19927;-43
2022/09/19 04:50:40;;;;;;;;;;;;;;;;;;2131789;27;19923;-43
2022/09/19 04:51:41;;;;;;;;;;;;;;;;;;2131989;27;20307;-43
2022/09/19 04:52:41;;;;;;;;;;;;;;;;;;2131949;27;20018;-46
2022/09/19 04:53:42;;;;;;;;;;;;;;;;;;2131982;27;20022;-46
2022/09/19 04:54:45;;;;;;;;;;;;;;;;;;2131720;27;19924;-46
2022/09/19 04:55:46;;;;;;;;;;;;;;;;;;2133025;27;19923;-46
2022/09/19 04:56:47;;;;;;;;;;;;;;;;;;2133479;27;19967;-43
2022/09/19 04:57:48;;;;;;;;;;;;;;;;;;2133159;27;19923;-43
2022/09/19 04:58:49;;;;;;;;;;;;;;;;;;2133480;27;20398;-43
2022/09/19 04:59:50;;;;;;;;;;;;;;;;;;2133201;27;20367;-43
2022/09/19 05:00:50;;;;;;;;;;;;;;;;;;2133246;27;19923;-43
2022/09/19 05:01:51;;;;;;;;;;;;;;;;;;2133028;27;19964;-43
2022/09/19 05:02:56;;;;;;;;;;;;;;;;;;2133124;27;20443;-43
2022/09/19 05:03:57;;;;;;;;;;;;;;;;;;2133238;27;19972;-43
2022/09/19 05:04:59;;;;;;;;;;;;;;;;;;2133157;27;20292;-43
2022/09/19 05:06:00;;;;;;;;;;;;;;;;;;2133518;27;19923;-45
2022/09/19 05:07:00;;;;;;;;;;;;;;;;;;2133271;27;20367;-43
2022/09/19 05:08:03;;;;;;;;;;;;;;;;;;2133470;27;19923;-43
2022/09/19 05:09:04;;;;;;;;;;;;;;;;;;2133146;27;20007;-43
2022/09/19 05:10:05;;;;;;;;;;;;;;;;;;2133499;27;20337;-43
2022/09/19 05:11:06;;;;;;;;;;;;;;;;;;2132563;27;20364;-45
2022/09/19 05:12:08;;;;;;;;;;;;;;;;;;2124830;27;20359;-45
2022/09/19 05:13:09;;;;;;;;;;;;;;;;;;2124633;28;19924;-43
2022/09/19 05:14:09;;;;;;;;;;;;;;;;;;2124511;28;19923;-43
2022/09/19 05:15:10;;;;;;;;;;;;;;;;;;2124759;28;19996;-45
2022/09/19 05:16:13;;;;;;;;;;;;;;;;;;2125094;28;20007;-45
2022/09/19 05:17:14;;;;;;;;;;;;;;;;;;2124441;27;19927;-45
2022/09/19 05:18:15;;;;;;;;;;;;;;;;;;2124538;28;19952;-46
2022/09/19 05:19:16;;;;;;;;;;;;;;;;;;2124570;28;19923;-45
2022/09/19 05:20:18;;;;;;;;;;;;;;;;;;2124509;28;19984;-46
2022/09/19 05:21:18;;;;;;;;;;;;;;;;;;2124767;27;19924;-43
2022/09/19 05:22:20;;;;;;;;;;;;;;;;;;2124697;28;19971;-43
2022/09/19 05:23:22;;;;;;;;;;;;;;;;;;2124450;28;19923;-43
2022/09/19 05:24:23;;;;;;;;;;;;;;;;;;2124480;28;20391;-43
2022/09/19 05:25:24;;;;;;;;;;;;;;;;;;2124433;28;19924;-43
2022/09/19 05:26:25;;;;;;;;;;;;;;;;;;2124500;27;19927;-43
2022/09/19 05:27:26;;;;;;;;;;;;;;;;;;2124991;28;20399;-45
2022/09/19 05:28:28;;;;;;;;;;;;;;;;;;2124617;28;19927;-46
2022/09/19 05:29:28;;;;;;;;;;;;;;;;;;2124326;28;19946;-45
2022/09/19 05:30:30;;;;;;;;;;;;;;;;;;2124561;28;20010;-46
2022/09/19 05:31:31;;;;;;;;;;;;;;;;;;2124932;27;19931;-44
2022/09/19 05:32:34;;;;;;;;;;;;;;;;;;2124531;28;20376;-43
2022/09/19 05:33:35;;;;;;;;;;;;;;;;;;2124379;28;20398;-43
2022/09/19 05:34:36;;;;;;;;;;;;;;;;;;2124611;28;20001;-43
2022/09/19 05:35:36;;;;;;;;;;;;;;;;;;2124346;28;19924;-43
2022/09/19 05:36:38;;;;;;;;;;;;;;;;;;2124193;27;19927;-43
2022/09/19 05:37:39;;;;;;;;;;;;;;;;;;2124411;27;20403;-44
2022/09/19 05:38:41;;;;;;;;;;;;;;;;;;2125089;28;19923;-42
2022/09/19 05:39:42;;;;;;;;;;;;;;;;;;2132294;27;19923;-44
2022/09/19 05:40:43;;;;;;;;;;;;;;;;;;2133332;27;20017;-45
2022/09/19 05:41:45;;;;;;;;;;;;;;;;;;2133525;27;19930;-45
2022/09/19 05:42:46;;;;;;;;;;;;;;;;;;2132830;27;19931;-42
2022/09/19 05:43:47;;;;;;;;;;;;;;;;;;2133476;27;19927;-46
2022/09/19 05:44:48;;;;;;;;;;;;;;;;;;2132803;27;20003;-45
2022/09/19 05:45:50;;;;;;;;;;;;;;;;;;2133364;27;19923;-43
2022/09/19 05:46:52;;;;;;;;;;;;;;;;;;2132757;27;19923;-43
2022/09/19 05:47:53;;;;;;;;;;;;;;;;;;2132798;27;19930;-43
2022/09/19 05:48:54;;;;;;;;;;;;;;;;;;2132794;27;19923;-43
2022/09/19 05:49:55;;;;;;;;;;;;;;;;;;2132839;27;20022;-43
2022/09/19 05:50:56;;;;;;;;;;;;;;;;;;2132841;27;19923;-42
2022/09/19 05:53:51;;;;;;;;;;;;;;;;;;2133608;27;19975;-43
2022/09/19 05:54:37;;;;;;;;;;;;;;;;;;2132961;27;19930;-45
2022/09/19 05:55:38;;;;;;;;;;;;;;;;;;2133079;27;19934;-46
2022/09/19 05:56:40;;;;;;;;;;;;;;;;;;2132662;27;20372;-46
2022/09/19 05:57:40;;;;;;;;;;;;;;;;;;2132896;27;20342;-46
2022/09/19 05:58:41;;;;;;;;;;;;;;;;;;2132787;27;19958;-46
2022/09/19 05:59:42;;;;;;;;;;;;;;;;;;2132880;27;19930;-46
2022/09/19 06:00:43;;;;;;;;;;;;;;;;;;2133046;27;20300;-45
2022/09/19 06:01:44;;;;;;;;;;;;;;;;;;2132878;27;19930;-43
2022/09/19 06:02:45;;;;;;;;;;;;;;;;;;2133056;27;19927;-44
2022/09/19 06:03:46;;;;;;;;;;;;;;;;;;2132858;27;19923;-43
2022/09/19 06:04:47;;;;;;;;;;;;;;;;;;2132807;27;20283;-43
2022/09/19 06:05:48;;;;;;;;;;;;;;;;;;2132300;27;19985;-43
2022/09/19 06:06:49;;;;;;;;;;;;;;;;;;2132526;27;20287;-43
2022/09/19 06:07:51;;;;;;;;;;;;;;;;;;2132757;27;19923;-42
2022/09/19 06:08:52;;;;;;;;;;;;;;;;;;2132676;27;19923;-42
2022/09/19 06:09:54;;;;;;;;;;;;;;;;;;2132797;27;20040;-42
2022/09/19 06:10:55;;;;;;;;;;;;;;;;;;2132925;27;20269;-43
2022/09/19 06:11:55;;;;;;;;;;;;;;;;;;2125038;27;20028;-45
2022/09/19 06:12:56;;;;;;;;;;;;;;;;;;2124200;28;19975;-45
2022/09/19 06:14:15;;;;;;;;;;;;;;;;;;2124055;28;20297;-46
2022/09/19 06:15:16;;;;;;;;;;;;;;;;;;2124558;28;19923;-43
2022/09/19 06:16:17;;;;;;;;;;;;;;;;;;2124007;27;19923;-42
2022/09/19 06:17:18;;;;;;;;;;;;;;;;;;2124225;28;19927;-43
2022/09/19 06:18:19;;;;;;;;;;;;;;;;;;2124532;28;20253;-46
2022/09/19 06:19:20;;;;;;;;;;;;;;;;;;2124356;28;19923;-43
2022/09/19 06:20:21;;;;;;;;;;;;;;;;;;2124439;28;19924;-43
2022/09/19 06:21:22;;;;;;;;;;;;;;;;;;2123951;27;19959;-42
2022/09/19 06:22:22;;;;;;;;;;;;;;;;;;2124523;28;19923;-45
2022/09/19 06:23:23;;;;;;;;;;;;;;;;;;2124267;28;20026;-42
2022/09/19 06:24:24;;;;;;;;;;;;;;;;;;2124227;28;19964;-42
2022/09/19 06:25:26;;;;;;;;;;;;;;;;;;2124054;28;20283;-42
2022/09/19 06:26:27;;;;;;;;;;;;;;;;;;2124128;27;19930;-42
2022/09/19 06:27:27;;;;;;;;;;;;;;;;;;2124118;28;19927;-43
2022/09/19 06:28:28;;;;;;;;;;;;;;;;;;2124330;28;20022;-43
2022/09/19 06:29:29;;;;;;;;;;;;;;;;;;2124349;28;19968;-46
2022/09/19 06:30:30;;;;;;;;;;;;;;;;;;2124271;28;19931;-42
2022/09/19 06:31:31;;;;;;;;;;;;;;;;;;2123913;27;19947;-43
2022/09/19 06:32:32;;;;;;;;;;;;;;;;;;2124070;28;19973;-43
2022/09/19 06:33:32;;;;;;;;;;;;;;;;;;2124397;28;20321;-42
2022/09/19 06:34:33;;;;;;;;;;;;;;;;;;2124354;27;19923;-43
2022/09/19 06:35:54;;;;;;;;;;;;;;;;;;2130850;27;19923;-46
2022/09/19 06:36:55;;;;;;;;;;;;;;;;;;2132530;27;19927;-47
2022/09/19 06:37:57;;;;;;;;;;;;;;;;;;2132540;27;20160;-46
2022/09/19 06:38:58;;;;;;;;;;;;;;;;;;2132957;27;19927;-43
2022/09/19 06:39:58;;;;;;;;;;;;;;;;;;2132640;27;20291;-43
2022/09/19 06:40:59;;;;;;;;;;;;;;;;;;2132480;27;19923;-43
2022/09/19 06:42:00;;;;;;;;;;;;;;;;;;2132623;27;19933;-44
2022/09/19 06:43:01;;;;;;;;;;;;;;;;;;2132487;27;19970;-43
2022/09/19 06:44:02;;;;;;;;;;;;;;;;;;2132496;27;19923;-43
2022/09/19 06:45:06;;;;;;;;;;;;;;;;;;2132580;27;19976;-43
2022/09/19 06:46:09;;;;;;;;;;;;;;;;;;2132711;27;19923;-43
2022/09/19 06:47:10;;;;;;;;;;;;;;;;;;2132417;27;19930;-43
2022/09/19 06:48:11;;;;;;;;;;;;;;;;;;2132650;27;20292;-47
2022/09/19 06:49:12;;;;;;;;;;;;;;;;;;2132436;27;20010;-46
2022/09/19 06:50:16;;;;;;;;;;;;;;;;;;2132542;27;19954;-46
2022/09/19 06:51:17;;;;;;;;;;;;;;;;;;2132369;27;19922;-47
2022/09/19 06:52:17;;;;;;;;;;;;;;;;;;2132895;27;19934;-43
2022/09/19 06:53:18;;;;;;;;;;;;;;;;;;2132388;27;20014;-44
2022/09/19 06:54:19;;;;;;;;;;;;;;;;;;2132775;27;20006;-43
2022/09/19 06:55:23;;;;;;;;;;;;;;;;;;2132322;27;20336;-43
2022/09/19 06:56:24;;;;;;;;;;;;;;;;;;2132836;27;19930;-46
2022/09/19 06:57:25;;;;;;;;;;;;;;;;;;2132360;27;20404;-46
2022/09/19 06:58:26;;;;;;;;;;;;;;;;;;2132565;27;19953;-46
2022/09/19 06:59:27;;;;;;;;;;;;;;;;;;2132342;27;20281;-47
2022/09/19 07:00:28;;;;;;;;;;;;;;;;;;2132644;27;19942;-46
2022/09/19 07:01:30;;;;;;;;;;;;;;;;;;2132225;27;19923;-47
2022/09/19 07:02:31;;;;;;;;;;;;;;;;;;2132402;27;19930;-46
2022/09/19 07:03:32;;;;;;;;;;;;;;;;;;2132302;27;19974;-46
2022/09/19 07:04:34;;;;;;;;;;;;;;;;;;2132512;27;19958;-46